createdAt,value
2018-11-21T00:01:22.517Z,40.73
2018-11-21T00:03:50.166Z,43.87
2018-11-21T00:06:17.466Z,39.47
2018-11-21T00:08:44.849Z,41.20
2018-11-21T00:11:14.623Z,41.23
2018-11-21T00:13:42.016Z,42.37
2018-11-21T00:16:09.549Z,41.18
2018-11-21T00:18:36.889Z,38.80
2018-11-21T00:21:04.253Z,39.70
2018-11-21T00:23:32.042Z,43.60
2018-11-21T00:25:59.295Z,40.63
2018-11-21T00:28:26.636Z,41.28
2018-11-21T00:30:53.977Z,41.10
2018-11-21T00:33:21.286Z,40.17
2018-11-21T00:35:49.063Z,43.97
2018-11-21T00:38:16.384Z,45.63
2018-11-21T00:40:43.676Z,43.87
2018-11-21T00:43:11.023Z,46.02
2018-11-21T00:45:38.353Z,45.30
2018-11-21T00:48:05.670Z,47.65
2018-11-21T00:50:32.960Z,46.15
2018-11-21T00:53:00.286Z,41.83
2018-11-21T00:55:27.615Z,44.10
2018-11-21T00:57:54.934Z,42.97
2018-11-21T01:00:22.285Z,45.28
2018-11-21T01:02:49.618Z,47.57
2018-11-21T01:05:17.650Z,43.57
2018-11-21T01:07:45.016Z,43.85
2018-11-21T01:10:12.363Z,39.65
2018-11-21T01:12:39.736Z,41.35
2018-11-21T01:15:09.862Z,44.83
2018-11-21T01:17:37.199Z,41.50
2018-11-21T01:20:06.003Z,41.07
2018-11-21T01:22:33.475Z,44.17
2018-11-21T01:25:00.781Z,43.47
2018-11-21T01:27:28.106Z,44.67
2018-11-21T01:29:57.866Z,38.45
2018-11-21T01:32:25.262Z,41.08
2018-11-21T01:34:52.611Z,40.33
2018-11-21T01:37:19.946Z,39.60
2018-11-21T01:39:47.332Z,43.02
2018-11-21T01:42:14.617Z,37.17
2018-11-21T01:44:42.119Z,36.20
2018-11-21T01:47:09.448Z,39.55
2018-11-21T01:49:36.759Z,36.93
2018-11-21T01:52:04.708Z,39.98
2018-11-21T01:54:34.231Z,39.20
2018-11-21T01:57:01.655Z,36.90
2018-11-21T01:59:29.058Z,34.67
2018-11-21T02:01:56.461Z,35.48
2018-11-21T02:04:23.769Z,34.60
2018-11-21T02:06:51.101Z,35.55
2018-11-21T02:09:18.433Z,34.25
2018-11-21T02:11:45.715Z,38.63
2018-11-21T02:14:13.097Z,35.70
2018-11-21T02:16:40.434Z,38.05
2018-11-21T02:19:07.867Z,37.20
2018-11-21T02:21:35.204Z,33.00
2018-11-21T02:24:02.600Z,35.80
2018-11-21T02:26:29.910Z,33.90
2018-11-21T02:28:57.244Z,32.57
2018-11-21T02:31:24.569Z,34.77
2018-11-21T02:33:51.930Z,37.93
2018-11-21T02:36:19.242Z,34.23
2018-11-21T02:38:46.602Z,34.73
2018-11-21T02:41:14.121Z,36.15
2018-11-21T02:43:41.525Z,35.00
2018-11-21T02:46:08.941Z,33.90
2018-11-21T02:48:36.278Z,31.90
2018-11-21T02:51:03.654Z,37.77
2018-11-21T02:53:30.971Z,36.23
2018-11-21T02:55:58.309Z,35.17
2018-11-21T02:58:25.660Z,39.03
2018-11-21T03:00:53.127Z,42.20
2018-11-21T03:03:20.856Z,40.95
2018-11-21T03:05:48.209Z,35.33
2018-11-21T03:08:15.542Z,36.37
2018-11-21T03:10:42.892Z,36.60
2018-11-21T03:13:10.232Z,37.33
2018-11-21T03:15:37.539Z,39.78
2018-11-21T03:18:05.060Z,37.73
2018-11-21T03:20:32.465Z,37.38
2018-11-21T03:22:59.783Z,35.43
2018-11-21T03:25:27.122Z,43.13
2018-11-21T03:27:54.433Z,37.20
2018-11-21T03:30:21.828Z,34.53
2018-11-21T03:32:49.457Z,40.43
2018-11-21T03:35:16.822Z,36.73
2018-11-21T03:37:44.191Z,40.23
2018-11-21T03:40:12.026Z,41.37
2018-11-21T03:42:39.662Z,43.65
2018-11-21T03:45:08.628Z,37.40
2018-11-21T03:47:38.748Z,42.93
2018-11-21T03:50:10.863Z,38.50
2018-11-21T03:52:38.440Z,36.98
2018-11-21T03:55:06.282Z,44.60
2018-11-21T03:57:33.742Z,44.63
2018-11-21T04:00:01.063Z,42.88
2018-11-21T04:02:28.455Z,46.20
2018-11-21T04:04:55.925Z,42.93
2018-11-21T04:07:23.244Z,43.90
2018-11-21T04:09:52.790Z,53.38
2018-11-21T04:12:22.632Z,49.83
2018-11-21T04:14:52.881Z,45.55
2018-11-21T04:17:20.198Z,42.75
2018-11-21T04:19:47.666Z,44.20
2018-11-21T04:22:14.976Z,40.17
2018-11-21T04:24:42.274Z,41.33
2018-11-21T04:27:09.660Z,47.50
2018-11-21T04:29:39.194Z,44.30
2018-11-21T04:32:06.555Z,47.98
2018-11-21T04:34:33.914Z,45.88
2018-11-21T04:37:01.255Z,46.75
2018-11-21T04:39:28.712Z,46.88
2018-11-21T04:41:56.000Z,43.63
2018-11-21T04:44:23.352Z,40.95
2018-11-21T04:46:50.717Z,46.37
2018-11-21T04:49:18.072Z,48.48
2018-11-21T04:51:47.515Z,44.67
2018-11-21T04:54:14.891Z,40.75
2018-11-21T04:56:44.512Z,38.83
2018-11-21T04:59:11.886Z,38.50
2018-11-21T05:01:39.235Z,39.03
2018-11-21T05:04:06.606Z,36.95
2018-11-21T05:06:33.918Z,41.45
2018-11-21T05:09:01.286Z,39.05
2018-11-21T05:11:28.837Z,40.15
2018-11-21T05:13:57.123Z,45.45
2018-11-21T05:16:24.482Z,41.83
2018-11-21T05:18:52.284Z,41.42
2018-11-21T05:21:19.674Z,40.17
2018-11-21T05:23:47.191Z,44.50
2018-11-21T05:26:14.503Z,41.02
2018-11-21T05:28:41.857Z,40.83
2018-11-21T05:31:09.989Z,39.60
2018-11-21T05:33:37.940Z,38.15
2018-11-21T05:36:05.314Z,40.30
2018-11-21T05:38:32.665Z,41.00
2018-11-21T05:41:00.127Z,37.35
2018-11-21T05:43:27.786Z,38.88
2018-11-21T05:46:00.292Z,42.98
2018-11-21T05:48:27.820Z,41.75
2018-11-21T05:50:55.258Z,40.20
2018-11-21T05:53:22.603Z,35.30
2018-11-21T05:55:52.731Z,39.78
2018-11-21T05:58:20.088Z,42.53
2018-11-21T06:00:50.616Z,46.30
2018-11-21T06:03:24.501Z,40.48
2018-11-21T06:05:52.062Z,37.03
2018-11-21T06:08:22.240Z,39.48
2018-11-21T06:10:49.607Z,36.68
2018-11-21T06:13:20.178Z,37.20
2018-11-21T06:15:47.749Z,36.68
2018-11-21T06:18:15.282Z,39.25
2018-11-21T06:20:42.625Z,39.65
2018-11-21T06:23:10.168Z,39.03
2018-11-21T06:25:37.535Z,37.42
2018-11-21T06:28:04.874Z,42.45
2018-11-21T06:30:32.326Z,40.63
2018-11-21T06:32:59.992Z,39.38
2018-11-21T06:35:27.422Z,42.65
2018-11-21T06:37:54.774Z,42.60
2018-11-21T06:40:22.508Z,103.32
2018-11-21T06:42:57.535Z,77.87
2018-11-21T06:45:29.291Z,53.30
2018-11-21T06:47:56.753Z,44.08
2018-11-21T06:50:24.104Z,41.00
2018-11-21T06:52:52.179Z,43.40
2018-11-21T06:55:19.520Z,50.03
2018-11-21T06:57:47.019Z,43.02
2018-11-21T07:00:14.412Z,43.80
2018-11-21T07:02:41.826Z,37.70
2018-11-21T07:05:10.157Z,42.38
2018-11-21T07:07:37.488Z,48.08
2018-11-21T07:10:11.438Z,47.93
2018-11-21T07:12:38.844Z,43.85
2018-11-21T07:15:06.501Z,46.37
2018-11-21T07:17:33.872Z,43.38
2018-11-21T07:20:01.261Z,44.90
2018-11-21T07:22:28.641Z,44.27
2018-11-21T07:24:59.105Z,42.30
2018-11-21T07:27:30.190Z,42.75
2018-11-21T07:30:05.483Z,43.02
2018-11-21T07:32:34.734Z,42.27
2018-11-21T07:35:02.035Z,42.45
2018-11-21T07:37:29.682Z,42.30
2018-11-21T07:39:57.039Z,41.65
2018-11-21T07:42:24.417Z,39.78
2018-11-21T07:44:51.915Z,38.70
2018-11-21T07:47:19.240Z,46.27
2018-11-21T07:49:46.906Z,41.28
2018-11-21T07:52:16.776Z,44.50
2018-11-21T07:54:44.162Z,42.83
2018-11-21T07:57:32.785Z,41.70
2018-11-21T08:00:43.705Z,40.87
2018-11-21T08:03:11.195Z,39.70
2018-11-21T08:05:44.327Z,41.05
2018-11-21T08:08:25.181Z,43.87
2018-11-21T08:11:21.242Z,47.37
2018-11-21T08:14:25.566Z,48.13
2018-11-21T08:17:18.918Z,39.53
2018-11-21T08:20:04.078Z,35.90
2018-11-21T08:22:57.139Z,41.83
2018-11-21T08:25:55.703Z,44.73
2018-11-21T08:28:30.019Z,43.83
2018-11-21T08:30:57.441Z,41.67
2018-11-21T08:33:24.801Z,41.10
2018-11-21T08:35:57.127Z,39.33
2018-11-21T08:38:24.495Z,41.87
2018-11-21T08:40:51.802Z,32.37
2018-11-21T08:43:19.176Z,45.03
2018-11-21T08:45:46.567Z,39.55
2018-11-21T08:48:14.601Z,37.90
2018-11-21T08:50:41.976Z,40.90
2018-11-21T08:53:09.277Z,43.50
2018-11-21T08:55:36.957Z,42.20
2018-11-21T08:58:04.580Z,39.10
2018-11-21T09:00:32.167Z,40.57
2018-11-21T09:03:03.704Z,39.87
2018-11-21T09:05:31.155Z,41.07
2018-11-21T09:08:03.006Z,35.80
2018-11-21T09:13:03.584Z,43.77
2018-11-21T09:15:37.372Z,41.13
2018-11-21T09:18:07.181Z,38.60
2018-11-21T09:20:34.700Z,36.33
2018-11-21T09:23:05.092Z,35.07
2018-11-21T09:25:34.993Z,44.87
2018-11-21T09:28:04.988Z,40.87
2018-11-21T09:30:32.338Z,37.17
2018-11-21T09:33:02.002Z,35.20
2018-11-21T09:35:31.825Z,36.70
2018-11-21T09:38:01.981Z,37.47
2018-11-21T09:40:29.300Z,40.17
2018-11-21T09:42:56.669Z,41.87
2018-11-21T09:45:24.586Z,39.10
2018-11-21T09:47:51.882Z,36.93
2018-11-21T09:50:23.937Z,38.50
2018-11-21T09:52:51.422Z,37.20
2018-11-21T09:55:18.728Z,38.90
2018-11-21T09:57:45.985Z,36.33
2018-11-21T10:00:51.276Z,32.57
2018-11-21T10:03:20.372Z,39.03
2018-11-21T10:05:50.426Z,37.17
2018-11-21T10:08:51.964Z,43.67
2018-11-21T10:11:19.660Z,37.90
2018-11-21T10:13:46.989Z,31.00
2018-11-21T10:16:17.553Z,38.07
2018-11-21T10:18:46.585Z,37.47
2018-11-21T10:21:17.824Z,37.73
2018-11-21T10:23:45.321Z,40.10
2018-11-21T10:26:15.234Z,33.10
2018-11-21T10:28:43.270Z,36.63
2018-11-21T10:31:13.011Z,30.97
2018-11-21T10:33:40.389Z,33.50
2018-11-21T10:36:08.029Z,32.77
2018-11-21T10:38:35.471Z,31.07
2018-11-21T10:41:07.239Z,28.37
2018-11-21T10:43:37.706Z,22.30
2018-11-21T10:46:05.339Z,18.57
2018-11-21T10:48:32.857Z,16.03
2018-11-21T10:51:03.669Z,17.90
2018-11-21T10:53:31.041Z,21.70
2018-11-21T10:55:59.623Z,25.40
2018-11-21T10:58:32.501Z,42.00
2018-11-21T11:01:28.350Z,29.03
2018-11-21T11:04:04.442Z,28.90
2018-11-21T11:07:11.254Z,29.83
2018-11-21T11:09:55.738Z,19.80
2018-11-21T11:12:33.213Z,27.40
2018-11-21T11:15:16.620Z,22.43
2018-11-21T11:18:15.444Z,22.90
2018-11-21T11:21:08.694Z,21.17
2018-11-21T11:23:55.622Z,22.07
2018-11-21T11:26:45.369Z,23.07
2018-11-21T11:29:30.754Z,10.27
2018-11-21T11:32:19.248Z,13.80
2018-11-21T11:35:08.684Z,13.00
2018-11-21T11:37:53.260Z,15.17
2018-11-21T11:40:52.272Z,9.87
2018-11-21T11:43:48.209Z,11.03
2018-11-21T11:46:38.407Z,10.40
2018-11-21T11:49:30.631Z,13.43
2018-11-21T11:52:34.058Z,12.87
2018-11-21T11:55:21.008Z,8.90
2018-11-21T11:58:06.846Z,9.63
2018-11-21T12:00:53.775Z,11.00
2018-11-21T12:03:47.289Z,7.73
2018-11-21T12:06:32.966Z,9.90
2018-11-21T12:09:15.730Z,11.17
2018-11-21T12:12:04.739Z,10.57
2018-11-21T12:14:49.704Z,11.50
2018-11-21T12:17:35.580Z,9.63
2018-11-21T12:20:49.847Z,10.50
2018-11-21T12:23:42.917Z,8.47
2018-11-21T12:26:19.124Z,11.17
2018-11-21T12:29:21.011Z,9.37
2018-11-21T12:32:09.361Z,10.80
2018-11-21T12:34:56.529Z,10.53
2018-11-21T12:38:04.105Z,9.30
2018-11-21T12:41:02.459Z,9.13
2018-11-21T12:43:51.708Z,10.47
2018-11-21T12:46:54.030Z,10.00
2018-11-21T12:49:36.665Z,9.23
2018-11-21T12:52:29.846Z,10.27
2018-11-21T12:55:15.462Z,11.37
2018-11-21T12:58:00.970Z,9.50
2018-11-21T13:00:46.953Z,9.73
2018-11-21T13:03:32.614Z,10.77
2018-11-21T13:06:20.320Z,9.40
2018-11-21T13:09:22.461Z,10.73
2018-11-21T13:12:27.208Z,14.60
2018-11-21T13:15:12.745Z,17.90
2018-11-21T13:18:01.633Z,17.83
2018-11-21T13:21:00.924Z,22.67
2018-11-21T13:23:46.722Z,23.50
2018-11-21T13:26:32.254Z,23.27
2018-11-21T13:29:33.539Z,25.33
2018-11-21T13:32:32.668Z,23.90
2018-11-21T13:35:18.541Z,22.20
2018-11-21T13:38:04.346Z,24.67
2018-11-21T13:40:51.576Z,24.30
2018-11-21T13:43:41.585Z,23.63
2018-11-21T13:46:28.504Z,15.20
2018-11-21T13:49:17.757Z,18.27
2018-11-21T13:52:20.090Z,16.70
2018-11-21T13:54:49.761Z,21.17
2018-11-21T13:57:21.181Z,22.77
2018-11-21T13:59:48.560Z,26.50
2018-11-21T14:02:15.960Z,27.07
2018-11-21T14:04:43.326Z,27.70
2018-11-21T14:07:13.144Z,26.00
2018-11-21T14:09:40.916Z,28.33
2018-11-21T14:12:10.000Z,26.97
2018-11-21T14:14:40.556Z,29.50
2018-11-21T14:17:18.048Z,35.47
2018-11-21T14:19:43.846Z,36.47
2018-11-21T14:22:11.197Z,37.10
2018-11-21T14:24:43.600Z,39.70
2018-11-21T14:27:10.996Z,38.93
2018-11-21T14:29:41.236Z,40.00
2018-11-21T14:32:08.773Z,45.40
2018-11-21T14:34:36.215Z,41.37
2018-11-21T14:37:03.949Z,40.57
2018-11-21T14:39:31.311Z,43.13
2018-11-21T14:41:59.267Z,43.40
2018-11-21T14:44:51.104Z,43.37
2018-11-21T14:47:18.729Z,43.33
2018-11-21T14:49:52.860Z,49.20
2018-11-21T14:52:20.179Z,47.53
2018-11-21T14:54:47.510Z,48.07
2018-11-21T14:57:14.791Z,45.93
2018-11-21T14:59:42.237Z,44.57
2018-11-21T15:02:09.558Z,52.00
2018-11-21T15:04:36.935Z,49.93
2018-11-21T15:07:06.479Z,50.63
2018-11-21T15:09:35.325Z,54.97
2018-11-21T15:12:07.298Z,52.70
2018-11-21T15:14:34.641Z,54.87
2018-11-21T15:17:02.286Z,61.23
2018-11-21T15:19:31.425Z,56.13
2018-11-21T15:22:03.713Z,58.23
2018-11-21T15:24:33.868Z,59.20
2018-11-21T15:27:04.401Z,59.83
2018-11-21T15:29:32.038Z,55.60
2018-11-21T15:31:59.461Z,65.07
2018-11-21T15:34:27.099Z,57.90
2018-11-21T15:37:05.249Z,57.00
2018-11-21T15:39:35.019Z,62.67
2018-11-21T15:42:02.325Z,60.93
2018-11-21T15:44:32.092Z,62.30
2018-11-21T15:47:04.235Z,57.77
2018-11-21T15:49:31.728Z,56.77
2018-11-21T15:52:05.021Z,63.10
2018-11-21T15:54:33.655Z,57.67
2018-11-21T15:57:00.981Z,55.10
2018-11-21T15:59:28.335Z,59.57
2018-11-21T16:01:58.483Z,58.67
2018-11-21T16:04:34.000Z,59.17
2018-11-21T16:07:04.627Z,57.57
2018-11-21T16:09:34.451Z,60.27
2018-11-21T16:12:04.356Z,60.37
2018-11-21T16:14:31.888Z,59.73
2018-11-21T16:16:59.236Z,61.30
2018-11-21T16:19:29.109Z,59.43
2018-11-21T16:21:56.578Z,60.50
2018-11-21T16:24:26.435Z,55.00
2018-11-21T16:26:56.762Z,58.90
2018-11-21T16:29:24.266Z,60.50
2018-11-21T16:31:54.340Z,60.83
2018-11-21T16:34:26.285Z,64.53
2018-11-21T16:36:58.192Z,55.53
2018-11-21T16:39:25.504Z,59.97
2018-11-21T16:41:55.779Z,60.37
2018-11-21T16:44:23.153Z,66.50
2018-11-21T16:46:50.654Z,64.37
2018-11-21T16:49:23.192Z,63.63
2018-11-21T16:51:50.741Z,68.33
2018-11-21T16:54:18.121Z,62.83
2018-11-21T16:56:54.643Z,60.20
2018-11-21T16:59:24.999Z,62.30
2018-11-21T17:02:01.297Z,65.50
2018-11-21T17:04:31.357Z,66.60
2018-11-21T17:06:58.665Z,68.77
2018-11-21T17:09:41.822Z,70.47
2018-11-21T17:12:12.867Z,68.93
2018-11-21T17:14:43.568Z,58.70
2018-11-21T17:17:14.173Z,67.40
2018-11-21T17:19:44.686Z,71.77
2018-11-21T17:22:15.075Z,68.33
2018-11-21T17:24:49.239Z,65.47
2018-11-21T17:27:21.892Z,77.03
2018-11-21T17:29:53.886Z,69.80
2018-11-21T17:32:19.082Z,69.60
